sensor_id;sensor_type;location;lat;lon;timestamp;P1;durP1;ratioP1;P2;durP2;ratioP2
23346;SDS011;36852;45.466;11.066;2024-01-06T00:00:51;0.42;;;0.30;;
23346;SDS011;36852;45.466;11.066;2024-01-06T00:03:18;0.23;;;0.20;;
23346;SDS011;36852;45.466;11.066;2024-01-06T00:05:47;0.75;;;0.10;;
23346;SDS011;36852;45.466;11.066;2024-01-06T00:08:15;0.72;;;0.42;;
23346;SDS011;36852;45.466;11.066;2024-01-06T00:10:43;2.10;;;0.45;;
23346;SDS011;36852;45.466;11.066;2024-01-06T00:13:12;0.62;;;0.20;;
23346;SDS011;36852;45.466;11.066;2024-01-06T00:15:39;0.10;;;0.10;;
23346;SDS011;36852;45.466;11.066;2024-01-06T00:18:08;0.28;;;0.20;;
23346;SDS011;36852;45.466;11.066;2024-01-06T00:20:36;0.23;;;0.15;;
23346;SDS011;36852;45.466;11.066;2024-01-06T00:23:08;0.57;;;0.45;;
23346;SDS011;36852;45.466;11.066;2024-01-06T00:25:36;1.62;;;0.30;;
23346;SDS011;36852;45.466;11.066;2024-01-06T00:28:04;0.40;;;0.30;;
23346;SDS011;36852;45.466;11.066;2024-01-06T00:30:32;0.72;;;0.40;;
23346;SDS011;36852;45.466;11.066;2024-01-06T00:33:00;0.42;;;0.20;;
23346;SDS011;36852;45.466;11.066;2024-01-06T00:35:28;0.50;;;0.30;;
23346;SDS011;36852;45.466;11.066;2024-01-06T00:37:57;0.20;;;0.20;;
23346;SDS011;36852;45.466;11.066;2024-01-06T00:40:30;2.05;;;0.30;;
23346;SDS011;36852;45.466;11.066;2024-01-06T00:43:00;0.13;;;0.10;;
23346;SDS011;36852;45.466;11.066;2024-01-06T00:45:29;0.35;;;0.20;;
23346;SDS011;36852;45.466;11.066;2024-01-06T00:47:58;0.20;;;0.20;;
23346;SDS011;36852;45.466;11.066;2024-01-06T00:50:26;0.35;;;0.30;;
23346;SDS011;36852;45.466;11.066;2024-01-06T00:52:54;0.82;;;0.30;;
23346;SDS011;36852;45.466;11.066;2024-01-06T00:55:22;0.70;;;0.30;;
23346;SDS011;36852;45.466;11.066;2024-01-06T00:57:53;0.85;;;0.30;;
23346;SDS011;36852;45.466;11.066;2024-01-06T01:00:21;0.20;;;0.20;;
23346;SDS011;36852;45.466;11.066;2024-01-06T01:02:53;0.10;;;0.10;;
23346;SDS011;36852;45.466;11.066;2024-01-06T01:05:21;0.20;;;0.20;;
23346;SDS011;36852;45.466;11.066;2024-01-06T01:07:52;0.10;;;0.10;;
23346;SDS011;36852;45.466;11.066;2024-01-06T01:10:20;0.10;;;0.10;;
23346;SDS011;36852;45.466;11.066;2024-01-06T01:12:48;0.13;;;0.10;;
23346;SDS011;36852;45.466;11.066;2024-01-06T01:15:17;0.40;;;0.10;;
23346;SDS011;36852;45.466;11.066;2024-01-06T01:17:46;0.65;;;0.10;;
23346;SDS011;36852;45.466;11.066;2024-01-06T01:20:15;0.17;;;0.17;;
23346;SDS011;36852;45.466;11.066;2024-01-06T01:22:43;0.10;;;0.10;;
23346;SDS011;36852;45.466;11.066;2024-01-06T01:25:11;0.05;;;0.05;;
23346;SDS011;36852;45.466;11.066;2024-01-06T01:27:40;0.53;;;0.20;;
23346;SDS011;36852;45.466;11.066;2024-01-06T01:30:09;0.20;;;0.10;;
23346;SDS011;36852;45.466;11.066;2024-01-06T01:32:40;0.20;;;0.10;;
23346;SDS011;36852;45.466;11.066;2024-01-06T01:35:09;1.52;;;0.35;;
23346;SDS011;36852;45.466;11.066;2024-01-06T01:37:37;0.23;;;0.20;;
23346;SDS011;36852;45.466;11.066;2024-01-06T01:40:05;0.50;;;0.20;;
23346;SDS011;36852;45.466;11.066;2024-01-06T01:42:34;0.15;;;0.10;;
23346;SDS011;36852;45.466;11.066;2024-01-06T01:45:02;0.10;;;0.10;;
23346;SDS011;36852;45.466;11.066;2024-01-06T01:47:32;0.30;;;0.10;;
23346;SDS011;36852;45.466;11.066;2024-01-06T01:50:05;0.25;;;0.10;;
23346;SDS011;36852;45.466;11.066;2024-01-06T01:52:36;0.45;;;0.20;;
23346;SDS011;36852;45.466;11.066;2024-01-06T01:55:04;0.30;;;0.20;;
23346;SDS011;36852;45.466;11.066;2024-01-06T01:57:32;0.53;;;0.20;;
23346;SDS011;36852;45.466;11.066;2024-01-06T02:00:01;0.20;;;0.20;;
23346;SDS011;36852;45.466;11.066;2024-01-06T02:02:32;0.13;;;0.10;;
23346;SDS011;36852;45.466;11.066;2024-01-06T02:05:00;0.42;;;0.23;;
23346;SDS011;36852;45.466;11.066;2024-01-06T02:07:28;0.08;;;0.08;;
23346;SDS011;36852;45.466;11.066;2024-01-06T02:09:57;0.10;;;0.10;;
23346;SDS011;36852;45.466;11.066;2024-01-06T02:12:25;0.10;;;0.10;;
23346;SDS011;36852;45.466;11.066;2024-01-06T02:14:53;1.70;;;0.23;;
23346;SDS011;36852;45.466;11.066;2024-01-06T02:17:25;0.00;;;0.00;;
23346;SDS011;36852;45.466;11.066;2024-01-06T02:19:52;0.10;;;0.10;;
23346;SDS011;36852;45.466;11.066;2024-01-06T02:22:22;0.20;;;0.20;;
23346;SDS011;36852;45.466;11.066;2024-01-06T02:24:53;0.20;;;0.20;;
23346;SDS011;36852;45.466;11.066;2024-01-06T02:27:21;1.30;;;0.10;;
23346;SDS011;36852;45.466;11.066;2024-01-06T02:29:49;0.93;;;0.17;;
23346;SDS011;36852;45.466;11.066;2024-01-06T02:32:18;0.20;;;0.20;;
23346;SDS011;36852;45.466;11.066;2024-01-06T02:34:46;0.62;;;0.20;;
23346;SDS011;36852;45.466;11.066;2024-01-06T02:37:14;0.10;;;0.10;;
23346;SDS011;36852;45.466;11.066;2024-01-06T02:39:45;0.10;;;0.10;;
23346;SDS011;36852;45.466;11.066;2024-01-06T02:42:14;0.00;;;0.00;;
23346;SDS011;36852;45.466;11.066;2024-01-06T02:44:43;0.17;;;0.17;;
23346;SDS011;36852;45.466;11.066;2024-01-06T02:47:12;0.62;;;0.23;;
23346;SDS011;36852;45.466;11.066;2024-01-06T02:49:43;0.10;;;0.10;;
23346;SDS011;36852;45.466;11.066;2024-01-06T02:52:12;0.30;;;0.10;;
23346;SDS011;36852;45.466;11.066;2024-01-06T02:54:40;0.28;;;0.15;;
23346;SDS011;36852;45.466;11.066;2024-01-06T02:57:13;0.20;;;0.03;;
23346;SDS011;36852;45.466;11.066;2024-01-06T02:59:43;0.30;;;0.20;;
23346;SDS011;36852;45.466;11.066;2024-01-06T03:02:11;0.42;;;0.10;;
23346;SDS011;36852;45.466;11.066;2024-01-06T03:04:39;0.10;;;0.10;;
23346;SDS011;36852;45.466;11.066;2024-01-06T03:07:08;0.40;;;0.25;;
23346;SDS011;36852;45.466;11.066;2024-01-06T03:09:36;0.10;;;0.05;;
23346;SDS011;36852;45.466;11.066;2024-01-06T03:12:06;0.17;;;0.17;;
23346;SDS011;36852;45.466;11.066;2024-01-06T03:14:34;0.47;;;0.20;;
23346;SDS011;36852;45.466;11.066;2024-01-06T03:17:03;1.90;;;0.30;;
23346;SDS011;36852;45.466;11.066;2024-01-06T03:19:31;1.55;;;0.30;;
23346;SDS011;36852;45.466;11.066;2024-01-06T03:22:00;1.30;;;0.53;;
23346;SDS011;36852;45.466;11.066;2024-01-06T03:24:28;0.60;;;0.50;;
23346;SDS011;36852;45.466;11.066;2024-01-06T03:26:56;1.80;;;0.57;;
23346;SDS011;36852;45.466;11.066;2024-01-06T03:29:25;1.92;;;0.90;;
23346;SDS011;36852;45.466;11.066;2024-01-06T03:31:53;1.52;;;0.93;;
23346;SDS011;36852;45.466;11.066;2024-01-06T03:34:22;1.55;;;1.10;;
23346;SDS011;36852;45.466;11.066;2024-01-06T03:36:50;2.08;;;0.88;;
23346;SDS011;36852;45.466;11.066;2024-01-06T03:39:18;1.15;;;0.68;;
23346;SDS011;36852;45.466;11.066;2024-01-06T03:41:47;0.95;;;0.80;;
23346;SDS011;36852;45.466;11.066;2024-01-06T03:44:16;1.37;;;0.80;;
23346;SDS011;36852;45.466;11.066;2024-01-06T03:46:43;1.07;;;0.80;;
23346;SDS011;36852;45.466;11.066;2024-01-06T03:49:12;2.77;;;0.85;;
23346;SDS011;36852;45.466;11.066;2024-01-06T03:51:41;1.98;;;0.90;;
23346;SDS011;36852;45.466;11.066;2024-01-06T03:54:09;0.88;;;0.80;;
23346;SDS011;36852;45.466;11.066;2024-01-06T03:56:38;2.05;;;0.85;;
23346;SDS011;36852;45.466;11.066;2024-01-06T03:59:06;1.05;;;0.55;;
23346;SDS011;36852;45.466;11.066;2024-01-06T04:01:36;1.47;;;1.10;;
23346;SDS011;36852;45.466;11.066;2024-01-06T04:04:04;0.75;;;0.70;;
23346;SDS011;36852;45.466;11.066;2024-01-06T04:06:33;1.12;;;1.00;;
23346;SDS011;36852;45.466;11.066;2024-01-06T04:09:01;0.98;;;0.80;;
23346;SDS011;36852;45.466;11.066;2024-01-06T04:11:29;1.25;;;0.93;;
23346;SDS011;36852;45.466;11.066;2024-01-06T04:13:57;1.42;;;0.80;;
23346;SDS011;36852;45.466;11.066;2024-01-06T04:16:26;2.77;;;0.78;;
23346;SDS011;36852;45.466;11.066;2024-01-06T04:18:55;0.85;;;0.80;;
23346;SDS011;36852;45.466;11.066;2024-01-06T04:21:23;1.92;;;0.95;;
23346;SDS011;36852;45.466;11.066;2024-01-06T04:23:52;2.55;;;0.90;;
23346;SDS011;36852;45.466;11.066;2024-01-06T04:26:20;2.00;;;1.15;;
23346;SDS011;36852;45.466;11.066;2024-01-06T04:28:48;1.17;;;1.07;;
23346;SDS011;36852;45.466;11.066;2024-01-06T04:31:17;1.35;;;1.25;;
23346;SDS011;36852;45.466;11.066;2024-01-06T04:33:45;2.50;;;1.30;;
23346;SDS011;36852;45.466;11.066;2024-01-06T04:36:14;1.25;;;1.12;;
23346;SDS011;36852;45.466;11.066;2024-01-06T04:38:42;0.80;;;0.70;;
23346;SDS011;36852;45.466;11.066;2024-01-06T04:41:11;1.47;;;1.10;;
23346;SDS011;36852;45.466;11.066;2024-01-06T04:43:39;1.45;;;0.93;;
23346;SDS011;36852;45.466;11.066;2024-01-06T04:46:08;2.47;;;0.90;;
23346;SDS011;36852;45.466;11.066;2024-01-06T04:48:40;1.10;;;0.78;;
23346;SDS011;36852;45.466;11.066;2024-01-06T04:51:11;1.50;;;0.80;;
23346;SDS011;36852;45.466;11.066;2024-01-06T04:53:40;2.52;;;1.00;;
23346;SDS011;36852;45.466;11.066;2024-01-06T04:56:09;1.82;;;1.25;;
23346;SDS011;36852;45.466;11.066;2024-01-06T04:58:37;1.55;;;1.10;;
23346;SDS011;36852;45.466;11.066;2024-01-06T05:01:06;1.17;;;0.95;;
23346;SDS011;36852;45.466;11.066;2024-01-06T05:03:35;2.22;;;1.10;;
23346;SDS011;36852;45.466;11.066;2024-01-06T05:06:04;1.45;;;1.32;;
23346;SDS011;36852;45.466;11.066;2024-01-06T05:08:32;2.30;;;1.82;;
23346;SDS011;36852;45.466;11.066;2024-01-06T05:11:00;1.85;;;1.17;;
23346;SDS011;36852;45.466;11.066;2024-01-06T05:13:28;1.65;;;1.25;;
23346;SDS011;36852;45.466;11.066;2024-01-06T05:15:57;2.20;;;1.25;;
23346;SDS011;36852;45.466;11.066;2024-01-06T05:18:30;3.17;;;1.60;;
23346;SDS011;36852;45.466;11.066;2024-01-06T05:20:59;3.40;;;2.02;;
23346;SDS011;36852;45.466;11.066;2024-01-06T05:23:27;2.17;;;1.98;;
23346;SDS011;36852;45.466;11.066;2024-01-06T05:25:56;3.27;;;2.15;;
23346;SDS011;36852;45.466;11.066;2024-01-06T05:28:25;2.05;;;1.85;;
23346;SDS011;36852;45.466;11.066;2024-01-06T05:30:54;2.55;;;2.02;;
23346;SDS011;36852;45.466;11.066;2024-01-06T05:33:23;4.08;;;2.22;;
23346;SDS011;36852;45.466;11.066;2024-01-06T05:35:50;2.02;;;1.92;;
23346;SDS011;36852;45.466;11.066;2024-01-06T05:38:20;2.67;;;2.15;;
23346;SDS011;36852;45.466;11.066;2024-01-06T05:40:48;2.50;;;2.30;;
23346;SDS011;36852;45.466;11.066;2024-01-06T05:43:15;3.83;;;2.37;;
23346;SDS011;36852;45.466;11.066;2024-01-06T05:45:43;3.05;;;2.65;;
23346;SDS011;36852;45.466;11.066;2024-01-06T05:48:11;5.55;;;2.70;;
23346;SDS011;36852;45.466;11.066;2024-01-06T05:50:40;3.00;;;2.55;;
23346;SDS011;36852;45.466;11.066;2024-01-06T05:53:09;2.58;;;2.37;;
23346;SDS011;36852;45.466;11.066;2024-01-06T05:55:37;3.02;;;2.83;;
23346;SDS011;36852;45.466;11.066;2024-01-06T05:58:06;3.20;;;2.87;;
23346;SDS011;36852;45.466;11.066;2024-01-06T06:00:34;3.37;;;3.08;;
23346;SDS011;36852;45.466;11.066;2024-01-06T06:03:03;119.22;;;66.42;;
23346;SDS011;36852;45.466;11.066;2024-01-06T06:05:32;53.20;;;29.55;;
23346;SDS011;36852;45.466;11.066;2024-01-06T06:08:00;6.65;;;4.85;;
23346;SDS011;36852;45.466;11.066;2024-01-06T06:10:28;4.03;;;3.20;;
23346;SDS011;36852;45.466;11.066;2024-01-06T06:12:58;3.90;;;3.50;;
23346;SDS011;36852;45.466;11.066;2024-01-06T06:15:27;7.85;;;3.70;;
23346;SDS011;36852;45.466;11.066;2024-01-06T06:17:54;4.17;;;3.77;;
23346;SDS011;36852;45.466;11.066;2024-01-06T06:20:23;4.33;;;3.92;;
23346;SDS011;36852;45.466;11.066;2024-01-06T06:22:55;7.92;;;4.60;;
23346;SDS011;36852;45.466;11.066;2024-01-06T06:25:23;4.55;;;4.08;;
23346;SDS011;36852;45.466;11.066;2024-01-06T06:27:51;4.20;;;3.80;;
23346;SDS011;36852;45.466;11.066;2024-01-06T06:30:22;7.15;;;4.40;;
23346;SDS011;36852;45.466;11.066;2024-01-06T06:32:51;5.03;;;4.47;;
23346;SDS011;36852;45.466;11.066;2024-01-06T06:35:19;6.92;;;5.67;;
23346;SDS011;36852;45.466;11.066;2024-01-06T06:37:50;5.75;;;5.17;;
23346;SDS011;36852;45.466;11.066;2024-01-06T06:40:19;5.22;;;4.72;;
23346;SDS011;36852;45.466;11.066;2024-01-06T06:42:49;5.25;;;4.78;;
23346;SDS011;36852;45.466;11.066;2024-01-06T06:45:17;5.50;;;4.97;;
23346;SDS011;36852;45.466;11.066;2024-01-06T06:47:46;6.08;;;4.75;;
23346;SDS011;36852;45.466;11.066;2024-01-06T06:50:17;5.15;;;4.65;;
23346;SDS011;36852;45.466;11.066;2024-01-06T06:52:46;6.20;;;5.33;;
23346;SDS011;36852;45.466;11.066;2024-01-06T06:55:14;5.92;;;4.87;;
23346;SDS011;36852;45.466;11.066;2024-01-06T06:57:43;5.40;;;4.90;;
23346;SDS011;36852;45.466;11.066;2024-01-06T07:00:11;5.97;;;5.40;;
23346;SDS011;36852;45.466;11.066;2024-01-06T07:02:40;6.40;;;5.70;;
23346;SDS011;36852;45.466;11.066;2024-01-06T07:05:08;7.42;;;5.87;;
23346;SDS011;36852;45.466;11.066;2024-01-06T07:07:36;6.78;;;6.08;;
23346;SDS011;36852;45.466;11.066;2024-01-06T07:10:05;6.70;;;5.90;;
23346;SDS011;36852;45.466;11.066;2024-01-06T07:12:34;7.35;;;6.10;;
23346;SDS011;36852;45.466;11.066;2024-01-06T07:15:03;6.15;;;5.55;;
23346;SDS011;36852;45.466;11.066;2024-01-06T07:17:33;6.50;;;5.55;;
23346;SDS011;36852;45.466;11.066;2024-01-06T07:20:02;8.18;;;6.60;;
23346;SDS011;36852;45.466;11.066;2024-01-06T07:22:30;7.65;;;6.90;;
23346;SDS011;36852;45.466;11.066;2024-01-06T07:24:58;7.72;;;6.90;;
23346;SDS011;36852;45.466;11.066;2024-01-06T07:27:26;7.72;;;6.83;;
23346;SDS011;36852;45.466;11.066;2024-01-06T07:29:55;9.28;;;7.30;;
23346;SDS011;36852;45.466;11.066;2024-01-06T07:32:23;7.90;;;7.08;;
23346;SDS011;36852;45.466;11.066;2024-01-06T07:34:52;8.30;;;7.47;;
23346;SDS011;36852;45.466;11.066;2024-01-06T07:37:20;8.40;;;7.20;;
23346;SDS011;36852;45.466;11.066;2024-01-06T07:39:51;7.72;;;7.03;;
23346;SDS011;36852;45.466;11.066;2024-01-06T07:42:19;8.98;;;6.50;;
23346;SDS011;36852;45.466;11.066;2024-01-06T07:44:47;9.30;;;6.35;;
23346;SDS011;36852;45.466;11.066;2024-01-06T07:47:15;7.00;;;6.12;;
23346;SDS011;36852;45.466;11.066;2024-01-06T07:49:43;7.22;;;6.53;;
23346;SDS011;36852;45.466;11.066;2024-01-06T07:52:12;7.53;;;6.33;;
23346;SDS011;36852;45.466;11.066;2024-01-06T07:54:41;6.35;;;5.72;;
23346;SDS011;36852;45.466;11.066;2024-01-06T07:57:09;7.15;;;6.45;;
23346;SDS011;36852;45.466;11.066;2024-01-06T07:59:39;7.40;;;6.55;;
23346;SDS011;36852;45.466;11.066;2024-01-06T08:02:07;7.53;;;6.60;;
23346;SDS011;36852;45.466;11.066;2024-01-06T08:04:36;7.78;;;6.83;;
23346;SDS011;36852;45.466;11.066;2024-01-06T08:07:05;8.15;;;7.35;;
23346;SDS011;36852;45.466;11.066;2024-01-06T08:09:33;7.60;;;6.85;;
23346;SDS011;36852;45.466;11.066;2024-01-06T08:12:02;8.13;;;7.33;;
23346;SDS011;36852;45.466;11.066;2024-01-06T08:14:31;8.00;;;7.20;;
23346;SDS011;36852;45.466;11.066;2024-01-06T08:16:59;8.40;;;7.55;;
23346;SDS011;36852;45.466;11.066;2024-01-06T08:19:28;9.13;;;7.55;;
23346;SDS011;36852;45.466;11.066;2024-01-06T08:21:58;9.85;;;7.70;;
23346;SDS011;36852;45.466;11.066;2024-01-06T08:24:27;8.73;;;7.15;;
23346;SDS011;36852;45.466;11.066;2024-01-06T08:26:55;10.08;;;7.80;;
23346;SDS011;36852;45.466;11.066;2024-01-06T08:29:26;8.58;;;7.65;;
23346;SDS011;36852;45.466;11.066;2024-01-06T08:31:54;9.23;;;8.23;;
23346;SDS011;36852;45.466;11.066;2024-01-06T08:34:40;10.15;;;8.08;;
23346;SDS011;36852;45.466;11.066;2024-01-06T08:37:09;10.38;;;8.90;;
23346;SDS011;36852;45.466;11.066;2024-01-06T08:39:37;11.60;;;8.58;;
23346;SDS011;36852;45.466;11.066;2024-01-06T08:42:06;9.08;;;8.18;;
23346;SDS011;36852;45.466;11.066;2024-01-06T08:44:34;28.87;;;18.50;;
23346;SDS011;36852;45.466;11.066;2024-01-06T08:47:02;50.73;;;29.60;;
23346;SDS011;36852;45.466;11.066;2024-01-06T08:49:30;16.73;;;12.23;;
23346;SDS011;36852;45.466;11.066;2024-01-06T08:51:59;12.60;;;10.65;;
23346;SDS011;36852;45.466;11.066;2024-01-06T08:54:27;14.13;;;10.88;;
23346;SDS011;36852;45.466;11.066;2024-01-06T08:56:56;13.95;;;11.73;;
23346;SDS011;36852;45.466;11.066;2024-01-06T08:59:25;19.55;;;13.40;;
23346;SDS011;36852;45.466;11.066;2024-01-06T09:01:53;15.90;;;12.35;;
23346;SDS011;36852;45.466;11.066;2024-01-06T09:04:21;14.75;;;11.63;;
23346;SDS011;36852;45.466;11.066;2024-01-06T09:06:48;15.20;;;12.40;;
23346;SDS011;36852;45.466;11.066;2024-01-06T09:09:18;14.73;;;10.38;;
23346;SDS011;36852;45.466;11.066;2024-01-06T09:11:46;15.48;;;11.48;;
23346;SDS011;36852;45.466;11.066;2024-01-06T09:14:16;12.50;;;11.03;;
23346;SDS011;36852;45.466;11.066;2024-01-06T09:16:45;13.45;;;10.28;;
23346;SDS011;36852;45.466;11.066;2024-01-06T09:19:14;10.32;;;9.18;;
23346;SDS011;36852;45.466;11.066;2024-01-06T09:21:42;11.85;;;9.15;;
23346;SDS011;36852;45.466;11.066;2024-01-06T09:24:11;12.53;;;8.43;;
23346;SDS011;36852;45.466;11.066;2024-01-06T09:26:40;9.33;;;7.80;;
23346;SDS011;36852;45.466;11.066;2024-01-06T09:29:08;11.28;;;8.30;;
23346;SDS011;36852;45.466;11.066;2024-01-06T09:31:38;9.80;;;7.67;;
23346;SDS011;36852;45.466;11.066;2024-01-06T09:34:09;17.67;;;12.95;;
23346;SDS011;36852;45.466;11.066;2024-01-06T09:36:37;9.55;;;7.62;;
23346;SDS011;36852;45.466;11.066;2024-01-06T09:39:06;9.33;;;7.40;;
23346;SDS011;36852;45.466;11.066;2024-01-06T09:41:35;8.70;;;6.62;;
23346;SDS011;36852;45.466;11.066;2024-01-06T09:44:04;8.20;;;6.92;;
23346;SDS011;36852;45.466;11.066;2024-01-06T09:46:33;9.63;;;7.97;;
23346;SDS011;36852;45.466;11.066;2024-01-06T09:49:03;11.40;;;8.18;;
23346;SDS011;36852;45.466;11.066;2024-01-06T09:51:31;10.40;;;8.18;;
23346;SDS011;36852;45.466;11.066;2024-01-06T09:54:04;10.28;;;8.20;;
23346;SDS011;36852;45.466;11.066;2024-01-06T09:56:35;10.23;;;8.50;;
23346;SDS011;36852;45.466;11.066;2024-01-06T09:59:03;11.43;;;8.70;;
23346;SDS011;36852;45.466;11.066;2024-01-06T10:01:31;10.50;;;8.65;;
23346;SDS011;36852;45.466;11.066;2024-01-06T10:03:59;10.30;;;8.60;;
23346;SDS011;36852;45.466;11.066;2024-01-06T10:06:27;11.12;;;9.28;;
23346;SDS011;36852;45.466;11.066;2024-01-06T10:08:57;10.08;;;8.40;;
23346;SDS011;36852;45.466;11.066;2024-01-06T10:11:25;22.17;;;11.85;;
23346;SDS011;36852;45.466;11.066;2024-01-06T10:13:53;19.12;;;13.03;;
23346;SDS011;36852;45.466;11.066;2024-01-06T10:16:21;19.42;;;13.98;;
23346;SDS011;36852;45.466;11.066;2024-01-06T10:18:50;28.87;;;15.60;;
23346;SDS011;36852;45.466;11.066;2024-01-06T10:21:21;21.57;;;14.43;;
23346;SDS011;36852;45.466;11.066;2024-01-06T10:23:50;17.92;;;11.53;;
23346;SDS011;36852;45.466;11.066;2024-01-06T10:26:22;13.80;;;10.75;;
23346;SDS011;36852;45.466;11.066;2024-01-06T10:28:50;15.00;;;10.30;;
23346;SDS011;36852;45.466;11.066;2024-01-06T10:31:21;13.22;;;9.50;;
23346;SDS011;36852;45.466;11.066;2024-01-06T10:33:49;15.68;;;10.90;;
23346;SDS011;36852;45.466;11.066;2024-01-06T10:36:19;23.77;;;14.85;;
23346;SDS011;36852;45.466;11.066;2024-01-06T10:38:47;25.72;;;13.98;;
23346;SDS011;36852;45.466;11.066;2024-01-06T10:41:16;27.50;;;13.32;;
23346;SDS011;36852;45.466;11.066;2024-01-06T10:43:45;25.77;;;13.03;;
23346;SDS011;36852;45.466;11.066;2024-01-06T10:46:15;13.80;;;9.48;;
23346;SDS011;36852;45.466;11.066;2024-01-06T10:48:46;14.70;;;9.65;;
23346;SDS011;36852;45.466;11.066;2024-01-06T10:51:15;17.05;;;9.68;;
23346;SDS011;36852;45.466;11.066;2024-01-06T10:53:45;14.75;;;8.73;;
23346;SDS011;36852;45.466;11.066;2024-01-06T10:56:14;13.45;;;9.13;;
23346;SDS011;36852;45.466;11.066;2024-01-06T10:58:47;14.85;;;9.55;;
23346;SDS011;36852;45.466;11.066;2024-01-06T11:01:21;15.75;;;10.88;;
23346;SDS011;36852;45.466;11.066;2024-01-06T11:03:56;13.22;;;8.83;;
23346;SDS011;36852;45.466;11.066;2024-01-06T11:06:26;10.60;;;8.33;;
23346;SDS011;36852;45.466;11.066;2024-01-06T11:09:04;9.55;;;8.00;;
23346;SDS011;36852;45.466;11.066;2024-01-06T11:11:39;8.00;;;7.20;;
23346;SDS011;36852;45.466;11.066;2024-01-06T11:14:21;10.43;;;7.33;;
23346;SDS011;36852;45.466;11.066;2024-01-06T11:16:53;7.87;;;6.62;;
23346;SDS011;36852;45.466;11.066;2024-01-06T11:22:25;9.88;;;7.17;;
23346;SDS011;36852;45.466;11.066;2024-01-06T11:24:57;9.98;;;6.90;;
23346;SDS011;36852;45.466;11.066;2024-01-06T11:27:35;11.35;;;8.40;;
23346;SDS011;36852;45.466;11.066;2024-01-06T11:30:04;21.80;;;14.25;;
23346;SDS011;36852;45.466;11.066;2024-01-06T11:32:35;26.80;;;17.52;;
23346;SDS011;36852;45.466;11.066;2024-01-06T11:35:10;10.95;;;8.25;;
23346;SDS011;36852;45.466;11.066;2024-01-06T11:40:22;12.30;;;9.33;;
23346;SDS011;36852;45.466;11.066;2024-01-06T11:45:28;9.20;;;7.35;;
23346;SDS011;36852;45.466;11.066;2024-01-06T11:48:04;8.35;;;7.10;;
23346;SDS011;36852;45.466;11.066;2024-01-06T11:50:39;9.85;;;7.70;;
23346;SDS011;36852;45.466;11.066;2024-01-06T11:53:06;8.75;;;7.35;;
23346;SDS011;36852;45.466;11.066;2024-01-06T11:55:38;10.35;;;7.60;;
23346;SDS011;36852;45.466;11.066;2024-01-06T11:58:06;10.95;;;8.25;;
23346;SDS011;36852;45.466;11.066;2024-01-06T12:00:35;7.65;;;6.75;;
23346;SDS011;36852;45.466;11.066;2024-01-06T12:03:08;8.30;;;6.92;;
23346;SDS011;36852;45.466;11.066;2024-01-06T12:05:37;9.50;;;8.08;;
23346;SDS011;36852;45.466;11.066;2024-01-06T12:08:06;10.70;;;7.87;;
23346;SDS011;36852;45.466;11.066;2024-01-06T12:10:35;15.03;;;9.38;;
23346;SDS011;36852;45.466;11.066;2024-01-06T12:13:05;13.13;;;10.10;;
23346;SDS011;36852;45.466;11.066;2024-01-06T12:15:36;11.43;;;9.03;;
23346;SDS011;36852;45.466;11.066;2024-01-06T12:18:08;11.05;;;8.95;;
23346;SDS011;36852;45.466;11.066;2024-01-06T12:20:37;10.65;;;8.38;;
23346;SDS011;36852;45.466;11.066;2024-01-06T12:23:05;9.63;;;7.37;;
23346;SDS011;36852;45.466;11.066;2024-01-06T12:25:34;10.68;;;8.35;;
23346;SDS011;36852;45.466;11.066;2024-01-06T12:28:05;12.15;;;9.88;;
23346;SDS011;36852;45.466;11.066;2024-01-06T12:30:33;9.00;;;7.40;;
23346;SDS011;36852;45.466;11.066;2024-01-06T12:33:03;7.67;;;6.55;;
23346;SDS011;36852;45.466;11.066;2024-01-06T12:35:32;8.48;;;7.55;;
23346;SDS011;36852;45.466;11.066;2024-01-06T12:40:44;11.03;;;8.65;;
23346;SDS011;36852;45.466;11.066;2024-01-06T12:43:14;10.78;;;7.80;;
23346;SDS011;36852;45.466;11.066;2024-01-06T12:45:42;8.45;;;7.58;;
23346;SDS011;36852;45.466;11.066;2024-01-06T12:48:11;19.50;;;13.95;;
23346;SDS011;36852;45.466;11.066;2024-01-06T12:50:42;11.30;;;8.60;;
23346;SDS011;36852;45.466;11.066;2024-01-06T12:53:10;7.25;;;6.53;;
23346;SDS011;36852;45.466;11.066;2024-01-06T12:55:43;15.98;;;10.35;;
23346;SDS011;36852;45.466;11.066;2024-01-06T12:58:12;18.77;;;11.33;;
23346;SDS011;36852;45.466;11.066;2024-01-06T13:00:40;13.85;;;10.40;;
23346;SDS011;36852;45.466;11.066;2024-01-06T13:03:08;7.28;;;6.58;;
23346;SDS011;36852;45.466;11.066;2024-01-06T13:05:36;7.00;;;6.33;;
23346;SDS011;36852;45.466;11.066;2024-01-06T13:08:07;7.28;;;5.87;;
23346;SDS011;36852;45.466;11.066;2024-01-06T13:10:36;6.00;;;5.45;;
23346;SDS011;36852;45.466;11.066;2024-01-06T13:13:04;6.53;;;5.92;;
23346;SDS011;36852;45.466;11.066;2024-01-06T13:15:33;7.08;;;6.37;;
23346;SDS011;36852;45.466;11.066;2024-01-06T13:18:01;7.35;;;6.53;;
23346;SDS011;36852;45.466;11.066;2024-01-06T13:20:29;7.00;;;6.30;;
23346;SDS011;36852;45.466;11.066;2024-01-06T13:22:58;7.72;;;6.97;;
23346;SDS011;36852;45.466;11.066;2024-01-06T13:25:27;6.85;;;6.17;;
23346;SDS011;36852;45.466;11.066;2024-01-06T13:27:56;7.87;;;6.87;;
23346;SDS011;36852;45.466;11.066;2024-01-06T13:30:24;6.72;;;6.03;;
23346;SDS011;36852;45.466;11.066;2024-01-06T13:32:55;6.92;;;6.22;;
23346;SDS011;36852;45.466;11.066;2024-01-06T13:35:24;5.80;;;5.20;;
23346;SDS011;36852;45.466;11.066;2024-01-06T13:37:53;7.08;;;6.37;;
23346;SDS011;36852;45.466;11.066;2024-01-06T13:40:24;13.62;;;7.87;;
23346;SDS011;36852;45.466;11.066;2024-01-06T13:42:55;12.13;;;8.78;;
23346;SDS011;36852;45.466;11.066;2024-01-06T13:45:23;7.95;;;7.08;;
23346;SDS011;36852;45.466;11.066;2024-01-06T13:47:52;11.55;;;8.30;;
23346;SDS011;36852;45.466;11.066;2024-01-06T13:50:20;10.80;;;8.58;;
23346;SDS011;36852;45.466;11.066;2024-01-06T13:52:48;11.90;;;9.55;;
23346;SDS011;36852;45.466;11.066;2024-01-06T13:55:17;11.43;;;10.20;;
23346;SDS011;36852;45.466;11.066;2024-01-06T13:57:50;11.90;;;9.43;;
23346;SDS011;36852;45.466;11.066;2024-01-06T14:00:20;9.75;;;8.75;;
23346;SDS011;36852;45.466;11.066;2024-01-06T14:02:48;10.53;;;9.43;;
23346;SDS011;36852;45.466;11.066;2024-01-06T14:05:17;11.20;;;9.90;;
23346;SDS011;36852;45.466;11.066;2024-01-06T14:07:46;11.48;;;9.73;;
23346;SDS011;36852;45.466;11.066;2024-01-06T14:10:16;10.08;;;8.58;;
23346;SDS011;36852;45.466;11.066;2024-01-06T14:12:44;12.80;;;10.03;;
23346;SDS011;36852;45.466;11.066;2024-01-06T14:15:12;12.30;;;10.13;;
23346;SDS011;36852;45.466;11.066;2024-01-06T14:17:42;14.55;;;10.70;;
23346;SDS011;36852;45.466;11.066;2024-01-06T14:20:12;10.43;;;8.95;;
23346;SDS011;36852;45.466;11.066;2024-01-06T14:22:41;11.00;;;8.48;;
23346;SDS011;36852;45.466;11.066;2024-01-06T14:25:09;12.70;;;8.95;;
23346;SDS011;36852;45.466;11.066;2024-01-06T14:27:38;10.13;;;8.75;;
23346;SDS011;36852;45.466;11.066;2024-01-06T14:30:08;11.57;;;10.05;;
23346;SDS011;36852;45.466;11.066;2024-01-06T14:32:37;20.57;;;13.58;;
23346;SDS011;36852;45.466;11.066;2024-01-06T14:35:05;17.87;;;11.80;;
23346;SDS011;36852;45.466;11.066;2024-01-06T14:37:38;12.85;;;10.23;;
23346;SDS011;36852;45.466;11.066;2024-01-06T14:40:06;12.35;;;10.10;;
23346;SDS011;36852;45.466;11.066;2024-01-06T14:42:36;11.55;;;10.20;;
23346;SDS011;36852;45.466;11.066;2024-01-06T14:45:09;12.30;;;9.98;;
23346;SDS011;36852;45.466;11.066;2024-01-06T14:47:38;11.00;;;9.03;;
23346;SDS011;36852;45.466;11.066;2024-01-06T14:50:06;10.68;;;9.58;;